Kuito, Kuito Airport (FNKU)

NameKuito Airport
CityKuito
CountryAngola
ICAOFNKU
IATASVP
Altitude1712 m
CoordinatesGoogle Map
Live Air TrafficLiveATC.net
METARFNKU 131300Z 15008KT CAVOK 27/17 Q1017
2019-01-13 13:00:00 Wind: Southeast (150°) 4.12 m/s - Visibility: > 10000 m - Weather: CAVOK - Temperature: 27 °C - Dew point: 17 °C - Humidity: 54.4% - Pressure: 1017 hPa
Statistics

The table below shows the detailed information of all flights to/from Kuito, Kuito Airport (FNKU).